Euskara    
Meteorología y climatología de Navarra
Datos de la estación - Meteo Navarra

Estación de Arangoiti GN

Altitud 1353 m.


Datos desde el 08/04/2021 hasta el 09/04/2021 en horario solar
Los datos son PROVISIONALES

Anterior Página 1 de 1 Siguiente Descargar: Formato para Excel 2000 o superior   Formato csv   Formato para OpenOffice Calc
Fecha Temperatura Humedad relativa Radiación global Insolación Precipitación Vel. viento 10 m Vel. viento 10 m Dir. viento 10 m
°C % W/m² s l/m² m/s km/h °
08/04/2021 0:00 1.8 74 0.0 0 0.0 12.2 43.9 161
08/04/2021 0:10 1.8 76 0.0 0 0.0 12.4 44.5 161
08/04/2021 0:20 1.4 78 0.0 0 0.0 12.4 44.6 159
08/04/2021 0:30 1.5 79 0.0 0 0.0 11.7 42.2 159
08/04/2021 0:40 1.6 81 0.0 0 0.0 10.9 39.3 155
08/04/2021 0:50 1.4 80 0.0 0 0.0 11.2 40.5 154
08/04/2021 1:00 1.2 81 0.0 0 0.0 11.2 40.4 154
08/04/2021 1:10 1.2 83 0.0 0 0.0 11.7 42.0 154
08/04/2021 1:20 1.2 85 0.0 0 0.0 11.9 42.7 154
08/04/2021 1:30 1.0 85 0.0 0 0.0 11.9 42.8 154
08/04/2021 1:40 1.0 86 0.0 0 0.0 12.2 43.9 153
08/04/2021 1:50 1.0 87 0.0 0 0.0 12.5 45.1 153
08/04/2021 2:00 0.8 87 0.0 0 0.0 12.7 45.6 155
08/04/2021 2:10 0.8 88 0.0 0 0.0 13.0 46.9 154
08/04/2021 2:20 0.9 89 0.0 0 0.0 12.5 45.1 155
08/04/2021 2:30 0.6 90 0.0 0 0.0 12.7 45.6 154
08/04/2021 2:40 0.6 91 0.0 0 0.0 13.1 47.1 154
08/04/2021 2:50 0.5 92 0.0 0 0.0 13.6 48.8 153
08/04/2021 3:00 0.6 93 0.0 0 0.0 13.4 48.4 151
08/04/2021 3:10 0.7 91 0.0 0 0.0 13.3 47.7 151
08/04/2021 3:20 0.7 90 0.0 0 0.0 14.0 50.3 149
08/04/2021 3:30 0.4 91 0.0 0 0.0 14.4 51.8 151
08/04/2021 3:40 0.6 93 0.0 0 0.0 14.2 51.0 150
08/04/2021 3:50 0.1 95 0.0 0 0.0 14.5 52.1 151
08/04/2021 4:00 -0.1 95 0.0 0 0.0 14.3 51.6 151
08/04/2021 4:10 -0.3 95 0.0 0 0.0 14.8 53.4 149
08/04/2021 4:20 -0.3 95 0.0 0 0.0 14.9 53.6 151
08/04/2021 4:30 -0.4 95 0.0 0 0.0 14.9 53.6 151
08/04/2021 4:40 -0.3 95 0.0 0 0.0 15.2 54.7 151
08/04/2021 4:50 -0.1 95 0.0 0 0.0 14.8 53.2 150
08/04/2021 5:00 -0.5 96 0.0 0 0.0 14.9 53.7 150
08/04/2021 5:10 -0.7 97 0.0 0 0.0 14.4 52.0 150
08/04/2021 5:20 -0.4 95 0.0 0 0.0 14.4 51.8 150
08/04/2021 5:30 -0.5 95 6.3 0 0.0 13.5 48.7 150
08/04/2021 5:40 -0.6 95 18.3 0 0.0 13.7 49.2 151
08/04/2021 5:50 -0.6 95 30.4 342 0.0 14.4 51.9 150
08/04/2021 6:00 -0.4 93 51.0 600 0.0 13.8 49.6 150
08/04/2021 6:10 -0.3 91 72.2 600 0.0 13.6 48.9 150
08/04/2021 6:20 -0.1 92 79.9 600 0.0 13.6 49.0 151
08/04/2021 6:30 0.2 90 131.8 600 0.0 13.5 48.5 152
08/04/2021 6:40 0.6 88 162.6 600 0.0 13.4 48.2 153
08/04/2021 6:50 0.6 87 193.4 600 0.0 13.3 47.8 153
08/04/2021 7:00 1.4 83 233.9 600 0.0 13.6 48.9 155
08/04/2021 7:10 1.5 82 273.9 600 0.0 13.3 48.0 155
08/04/2021 7:20 1.9 81 297.8 600 0.0 13.2 47.6 157
08/04/2021 7:30 2.1 81 332.4 600 0.0 13.1 47.1 157
08/04/2021 7:40 1.9 81 299.9 468 0.0 12.9 46.3 157
08/04/2021 7:50 2.5 79 365.4 600 0.0 12.7 45.7 160
08/04/2021 8:00 2.9 80 418.3 600 0.0 12.3 44.1 159
08/04/2021 8:10 3.0 78 447.2 600 0.0 12.1 43.4 160
08/04/2021 8:20 3.8 75 482.1 600 0.0 11.8 42.5 161
08/04/2021 8:30 2.8 78 368.6 340 0.0 11.0 39.7 161
08/04/2021 8:40 2.7 80 282.3 266 0.0 10.9 39.1 160
08/04/2021 8:50 2.6 81 258.1 0 0.0 11.0 39.7 160
08/04/2021 9:00 2.8 80 269.3 0 0.0 10.5 37.8 160
08/04/2021 9:10 2.9 80 257.5 0 0.0 10.1 36.4 162
08/04/2021 9:20 2.9 80 257.6 0 0.0 10.0 36.1 161
08/04/2021 9:30 3.4 80 254.8 0 0.0 9.8 35.4 161
08/04/2021 9:40 3.7 79 289.7 0 0.0 9.5 34.3 158
08/04/2021 9:50 3.8 79 288.9 0 0.0 9.2 32.9 160
08/04/2021 10:00 4.1 77 332.3 14 0.0 9.1 32.8 157
08/04/2021 10:10 4.1 77 329.2 0 0.0 9.3 33.5 156
08/04/2021 10:20 4.6 76 364.8 126 0.0 9.5 34.2 159
08/04/2021 10:30 5.7 72 499.6 510 0.0 9.4 33.9 158
08/04/2021 10:40 5.5 74 418.4 320 0.0 9.6 34.6 157
08/04/2021 10:50 5.5 74 415.6 192 0.0 10.0 36.0 157
08/04/2021 11:00 6.5 71 585.1 600 0.0 9.0 32.4 158
08/04/2021 11:10 6.3 72 479.1 384 0.0 8.8 31.5 157
08/04/2021 11:20 6.4 72 488.7 302 0.0 8.8 31.8 163
08/04/2021 11:30 7.2 70 579.9 478 0.0 7.9 28.3 163
08/04/2021 11:40 7.9 67 656.9 462 0.0 8.4 30.1 158
08/04/2021 11:50 8.7 66 785.2 600 0.0 8.2 29.5 171
08/04/2021 12:00 8.4 66 720.7 600 0.0 7.7 27.6 165
08/04/2021 12:10 8.9 65 787.9 600 0.0 6.4 22.9 170
08/04/2021 12:20 9.9 62 781.9 600 0.0 5.5 19.8 174
08/04/2021 12:30 9.8 63 852.0 600 0.0 6.0 21.6 169
08/04/2021 12:40 9.8 64 686.3 528 0.0 5.0 17.9 165
08/04/2021 12:50 10.2 63 654.7 594 0.0 5.2 18.6 167
08/04/2021 13:00 10.2 63 709.4 600 0.0 6.5 23.5 170
08/04/2021 13:10 10.6 61 812.0 600 0.0 6.3 22.5 163
08/04/2021 13:20 11.7 58 743.4 600 0.0 5.1 18.4 169
08/04/2021 13:30 10.4 61 659.8 600 0.0 4.6 16.4 180
08/04/2021 13:40 10.8 61 729.7 600 0.0 4.9 17.6 176
08/04/2021 13:50 11.0 60 727.6 600 0.0 4.1 14.6 179
08/04/2021 14:00 10.5 61 618.8 600 0.0 5.5 19.7 170
08/04/2021 14:10 10.5 59 798.6 600 0.0 3.3 11.9 186
08/04/2021 14:20 10.1 60 765.8 600 0.0 3.9 14.1 186
08/04/2021 14:30 11.0 59 648.3 600 0.0 4.6 16.6 181
08/04/2021 14:40 10.1 63 541.4 600 0.0 4.4 15.8 182
08/04/2021 14:50 10.0 63 498.0 600 0.0 5.3 19.1 173
08/04/2021 15:00 10.3 61 563.7 600 0.0 4.9 17.7 181
08/04/2021 15:10 10.5 61 447.4 332 0.0 3.7 13.2 189
08/04/2021 15:20 10.4 63 372.9 366 0.0 4.6 16.6 178
08/04/2021 15:30 9.5 64 300.9 210 0.0 4.2 15.0 186
08/04/2021 15:40 10.0 62 540.6 468 0.0 4.5 16.3 182
08/04/2021 15:50 10.2 62 594.3 600 0.0 5.2 18.8 174
08/04/2021 16:00 9.6 64 308.6 286 0.0 5.7 20.5 178
08/04/2021 16:10 10.1 65 230.4 254 0.0 5.0 18.0 167
08/04/2021 16:20 10.0 64 405.5 600 0.0 3.3 11.8 193
08/04/2021 16:30 9.5 65 381.1 600 0.0 4.0 14.3 185
08/04/2021 16:40 9.2 65 329.8 600 0.0 5.2 18.6 179
08/04/2021 16:50 9.6 66 267.4 600 0.0 3.9 14.0 183
08/04/2021 17:00 9.1 66 269.8 600 0.0 5.1 18.5 180
08/04/2021 17:10 9.1 69 251.5 600 0.0 4.2 15.0 178
08/04/2021 17:20 9.1 68 216.0 600 0.0 3.9 14.0 186
08/04/2021 17:30 8.7 69 180.6 600 0.0 3.5 12.5 189
08/04/2021 17:40 8.7 69 146.9 600 0.0 2.9 10.4 190
08/04/2021 17:50 8.5 69 110.5 552 0.0 3.5 12.7 192
08/04/2021 18:00 8.3 70 41.7 0 0.0 3.4 12.2 197
08/04/2021 18:10 8.2 70 32.4 0 0.0 3.4 12.2 200
08/04/2021 18:20 8.2 70 26.3 0 0.0 3.6 13.1 197
08/04/2021 18:30 8.1 70 20.2 0 0.0 5.0 18.0 192
08/04/2021 18:40 7.9 70 10.9 0 0.0 4.8 17.4 190
08/04/2021 18:50 7.8 72 0.0 0 0.0 3.5 12.7 196
08/04/2021 19:00 7.7 74 0.0 0 0.0 1.7 6.2 204
08/04/2021 19:10 7.6 74 0.0 0 0.0 3.0 10.9 196
08/04/2021 19:20 7.6 74 0.0 0 0.0 1.9 6.8 200
08/04/2021 19:30 7.6 74 0.0 0 0.0 2.5 8.9 197
08/04/2021 19:40 7.5 75 0.0 0 0.0 1.7 6.2 200
08/04/2021 19:50 7.4 76 0.0 0 0.0 2.7 9.8 196
08/04/2021 20:00 7.3 76 0.0 0 0.0 3.9 14.1 183
08/04/2021 20:10 7.2 76 0.0 0 0.0 4.3 15.6 183
08/04/2021 20:20 7.4 74 0.0 0 0.0 5.8 20.8 181
08/04/2021 20:30 7.2 73 0.0 0 0.0 6.5 23.3 177
08/04/2021 20:40 7.2 71 0.0 0 0.0 6.6 23.8 172
08/04/2021 20:50 7.2 73 0.0 0 0.0 6.5 23.3 167
08/04/2021 21:00 7.1 75 0.0 0 0.0 6.1 21.8 162
08/04/2021 21:10 7.2 73 0.0 0 0.0 5.8 21.0 158
08/04/2021 21:20 7.1 74 0.0 0 0.0 5.5 19.8 159
08/04/2021 21:30 6.9 75 0.0 0 0.0 5.6 20.1 159
08/04/2021 21:40 6.7 74 0.0 0 0.0 5.3 19.2 166
08/04/2021 21:50 6.8 73 0.0 0 0.0 6.9 24.8 163
08/04/2021 22:00 6.7 75 0.0 0 0.0 7.1 25.5 162
08/04/2021 22:10 6.3 77 0.0 0 0.0 6.4 22.9 164
08/04/2021 22:20 6.2 79 0.0 0 0.0 6.1 21.8 160
08/04/2021 22:30 6.1 77 0.0 0 0.0 7.0 25.1 155
08/04/2021 22:40 6.1 78 0.0 0 0.0 7.0 25.2 155
08/04/2021 22:50 5.9 79 0.0 0 0.0 6.6 23.7 158
08/04/2021 23:00 5.9 80 0.0 0 0.0 5.7 20.6 161
08/04/2021 23:10 6.1 80 0.0 0 0.0 5.6 20.3 160
08/04/2021 23:20 6.3 77 0.0 0 0.0 6.6 23.8 156
08/04/2021 23:30 6.2 79 0.0 0 0.0 7.2 26.1 154
08/04/2021 23:40 5.3 83 0.0 0 0.0 6.6 23.8 154
08/04/2021 23:50 5.5 81 0.0 0 0.0 6.6 23.8 151
Anterior Página 1 de 1 Siguiente
Los datos de precipitación registrados en estaciones que están en cumbres son inferiores a lo real, como consecuencia del efecto del viento y de la nieve.


NOTA: Tipo de datos según el color:
   - Valores diarios o 10 minutos correctos
   - Valores diarios calculados a partir de un número de datos 10 minutos menor que 144 y mayor que 120, o de un número de datos semihorarios menor que 48 y mayor que 40 (caso de las estaciones de INTIA Y Ministerio)
   - Valores diez minutos estimados


Contacto        Enlaces        Aviso legal